createdAt,value
2022-10-30T00:00:30.630Z,14.39
2022-10-30T00:02:58.276Z,14.39
2022-10-30T00:05:05.092Z,14.39
2022-10-30T00:07:11.687Z,14.39
2022-10-30T00:09:17.890Z,14.38
2022-10-30T00:11:24.586Z,14.37
2022-10-30T00:13:31.009Z,14.36
2022-10-30T00:15:37.598Z,14.34
2022-10-30T00:17:44.339Z,14.31
2022-10-30T00:19:50.722Z,14.27
2022-10-30T00:24:06.253Z,14.19
2022-10-30T00:26:12.678Z,14.18
2022-10-30T00:28:19.038Z,14.16
2022-10-30T00:30:25.446Z,14.14
2022-10-30T00:32:31.930Z,14.11
2022-10-30T00:34:38.334Z,14.10
2022-10-30T00:36:47.330Z,14.09
2022-10-30T00:38:53.519Z,14.07
2022-10-30T00:41:00.793Z,14.06
2022-10-30T00:43:07.064Z,14.07
2022-10-30T00:45:15.374Z,14.06
2022-10-30T00:47:44.806Z,14.06
2022-10-30T00:50:13.910Z,14.05
2022-10-30T00:52:22.897Z,14.04
2022-10-30T00:54:29.366Z,14.03
2022-10-30T00:56:37.032Z,14.02
2022-10-30T00:58:56.820Z,14.02
2022-10-30T01:01:07.005Z,14.00
2022-10-30T01:03:13.908Z,13.98
2022-10-30T01:05:23.448Z,13.96
2022-10-30T01:07:30.172Z,13.94
2022-10-30T01:09:37.998Z,13.93
2022-10-30T01:11:44.442Z,13.91
2022-10-30T01:13:53.223Z,13.89
2022-10-30T01:16:18.176Z,13.89
2022-10-30T01:18:51.947Z,13.87
2022-10-30T01:21:23.343Z,13.87
2022-10-30T01:23:45.183Z,13.86
2022-10-30T01:26:22.761Z,13.86
2022-10-30T01:28:52.125Z,13.85
2022-10-30T01:31:21.292Z,13.84
2022-10-30T01:33:45.051Z,13.83
2022-10-30T01:36:03.092Z,13.83
2022-10-30T01:38:18.325Z,13.83
2022-10-30T01:40:26.910Z,13.81
2022-10-30T01:42:45.110Z,13.83
2022-10-30T01:44:53.728Z,13.83
2022-10-30T01:47:32.541Z,13.82
2022-10-30T01:49:51.413Z,13.81
2022-10-30T01:52:08.306Z,13.80
2022-10-30T01:55:00.561Z,13.79
2022-10-30T01:57:25.494Z,13.77
2022-10-30T01:59:49.437Z,13.75
2022-10-30T02:01:55.851Z,13.75
2022-10-30T02:06:14.719Z,13.74
2022-10-30T02:08:23.186Z,13.74
2022-10-30T02:10:31.486Z,13.73
2022-10-30T02:12:38.172Z,13.72
2022-10-30T02:14:50.045Z,13.72
2022-10-30T02:17:00.672Z,13.72
2022-10-30T02:19:08.581Z,13.72
2022-10-30T02:21:14.989Z,13.71
2022-10-30T02:23:23.403Z,13.71
2022-10-30T02:25:29.887Z,13.71
2022-10-30T02:27:36.118Z,13.71
2022-10-30T02:29:42.445Z,13.71
2022-10-30T02:31:48.538Z,13.72
2022-10-30T02:33:54.520Z,13.72
2022-10-30T02:36:00.929Z,13.73
2022-10-30T02:38:07.006Z,13.73
2022-10-30T02:40:13.439Z,13.74
2022-10-30T02:42:19.635Z,13.74
2022-10-30T02:44:26.291Z,13.74
2022-10-30T02:46:32.791Z,13.74
2022-10-30T02:48:39.070Z,13.73
2022-10-30T02:50:45.715Z,13.73
2022-10-30T02:52:51.748Z,13.72
2022-10-30T02:54:58.869Z,13.72
2022-10-30T02:57:07.871Z,13.74
2022-10-30T02:59:14.382Z,13.75
2022-10-30T03:01:21.815Z,13.74
2022-10-30T03:03:30.181Z,13.74
2022-10-30T03:05:36.629Z,13.75
2022-10-30T03:07:43.231Z,13.74
2022-10-30T03:09:49.622Z,13.73
2022-10-30T03:11:55.901Z,13.72
2022-10-30T03:14:02.781Z,13.70
2022-10-30T03:16:11.727Z,13.69
2022-10-30T03:18:18.195Z,13.68
2022-10-30T03:20:27.173Z,13.66
2022-10-30T03:22:33.590Z,13.64
2022-10-30T03:24:39.771Z,13.62
2022-10-30T03:26:46.678Z,13.60
2022-10-30T03:28:52.991Z,13.60
2022-10-30T03:31:08.366Z,13.57
2022-10-30T03:33:14.923Z,13.57
2022-10-30T03:35:21.294Z,13.56
2022-10-30T03:37:27.591Z,13.55
2022-10-30T03:39:34.093Z,13.54
2022-10-30T03:41:44.541Z,13.54
2022-10-30T03:43:52.088Z,13.54
2022-10-30T03:45:58.900Z,13.54
2022-10-30T03:48:07.629Z,13.54
2022-10-30T03:50:14.427Z,13.54
2022-10-30T03:52:20.914Z,13.53
2022-10-30T03:54:28.177Z,13.53
2022-10-30T03:56:34.588Z,13.53
2022-10-30T03:58:42.257Z,13.52
2022-10-30T04:00:50.552Z,13.51
2022-10-30T04:02:56.815Z,13.51
2022-10-30T04:05:04.190Z,13.50
2022-10-30T04:07:10.718Z,13.49
2022-10-30T04:09:17.459Z,13.47
2022-10-30T04:11:23.625Z,13.47
2022-10-30T04:13:29.708Z,13.47
2022-10-30T04:15:36.150Z,13.46
2022-10-30T04:17:42.492Z,13.46
2022-10-30T04:19:49.498Z,13.46
2022-10-30T04:21:55.680Z,13.46
2022-10-30T04:24:01.837Z,13.45
2022-10-30T04:26:09.036Z,13.45
2022-10-30T04:28:17.055Z,13.44
2022-10-30T04:30:26.125Z,13.44
2022-10-30T04:32:32.453Z,13.44
2022-10-30T04:34:40.637Z,13.44
2022-10-30T04:36:46.954Z,13.43
2022-10-30T04:38:53.497Z,13.44
2022-10-30T04:41:00.636Z,13.43
2022-10-30T04:43:20.223Z,13.43
2022-10-30T04:45:28.857Z,13.43
2022-10-30T04:47:35.183Z,13.42
2022-10-30T04:49:41.931Z,13.42
2022-10-30T04:51:48.543Z,13.41
2022-10-30T04:53:56.208Z,13.40
2022-10-30T04:56:02.641Z,13.39
2022-10-30T04:58:11.186Z,13.39
2022-10-30T05:00:19.065Z,13.39
2022-10-30T05:02:26.724Z,13.38
2022-10-30T05:04:33.286Z,13.37
2022-10-30T05:06:41.151Z,13.36
2022-10-30T05:08:47.783Z,13.34
2022-10-30T05:11:07.332Z,13.33
2022-10-30T05:13:15.017Z,13.31
2022-10-30T05:15:22.311Z,13.29
2022-10-30T05:19:38.714Z,13.25
2022-10-30T05:21:45.215Z,13.23
2022-10-30T05:23:52.371Z,13.22
2022-10-30T05:26:01.296Z,13.22
2022-10-30T05:28:08.869Z,13.21
2022-10-30T05:30:20.483Z,13.20
2022-10-30T05:32:27.506Z,13.19
2022-10-30T05:34:35.053Z,13.19
2022-10-30T05:36:41.409Z,13.18
2022-10-30T05:38:48.875Z,13.18
2022-10-30T05:41:03.444Z,13.18
2022-10-30T05:43:10.221Z,13.19
2022-10-30T05:45:17.852Z,13.18
2022-10-30T05:47:24.107Z,13.19
2022-10-30T05:49:32.833Z,13.18
2022-10-30T05:51:40.773Z,13.18
2022-10-30T05:53:52.730Z,13.18
2022-10-30T05:56:01.505Z,13.18
2022-10-30T05:58:11.701Z,13.18
2022-10-30T06:00:19.558Z,13.16
2022-10-30T06:02:26.172Z,13.16
2022-10-30T06:04:32.535Z,13.16
2022-10-30T06:06:41.054Z,13.17
2022-10-30T06:08:47.589Z,13.17
2022-10-30T06:11:09.916Z,13.18
2022-10-30T06:13:20.049Z,13.19
2022-10-30T06:15:49.502Z,13.20
2022-10-30T06:17:56.619Z,13.20
2022-10-30T06:20:18.818Z,13.21
2022-10-30T06:22:43.684Z,13.21
2022-10-30T06:24:54.754Z,13.20
2022-10-30T06:27:24.048Z,13.18
2022-10-30T06:29:30.345Z,13.18
2022-10-30T06:31:36.879Z,13.17
2022-10-30T06:33:43.170Z,13.16
2022-10-30T06:35:53.073Z,13.15
2022-10-30T06:38:01.288Z,13.15
2022-10-30T06:40:10.874Z,13.14
2022-10-30T06:42:49.454Z,13.14
2022-10-30T06:45:09.197Z,13.13
2022-10-30T06:47:15.508Z,13.14
2022-10-30T06:49:21.969Z,13.14
2022-10-30T06:51:29.973Z,13.14
2022-10-30T06:53:37.662Z,13.14
2022-10-30T06:56:05.165Z,13.14
2022-10-30T06:58:25.763Z,13.14
2022-10-30T07:00:35.785Z,13.14
2022-10-30T07:03:05.772Z,13.15
2022-10-30T07:05:12.374Z,13.16
2022-10-30T07:07:19.936Z,13.17
2022-10-30T07:09:25.994Z,13.17
2022-10-30T07:11:32.182Z,13.17
2022-10-30T07:13:57.247Z,13.18
2022-10-30T07:16:14.642Z,13.18
2022-10-30T07:18:23.305Z,13.20
2022-10-30T07:20:36.122Z,13.21
2022-10-30T07:22:43.007Z,13.22
2022-10-30T07:24:50.338Z,13.22
2022-10-30T07:27:16.770Z,13.23
2022-10-30T07:29:29.422Z,13.25
2022-10-30T07:32:14.160Z,13.24
2022-10-30T07:34:32.639Z,13.22
2022-10-30T07:36:59.511Z,13.20
2022-10-30T07:39:18.744Z,13.21
2022-10-30T07:41:44.740Z,13.20
2022-10-30T07:44:22.376Z,13.20
2022-10-30T07:46:47.026Z,13.19
2022-10-30T07:48:58.937Z,13.19
2022-10-30T07:51:19.833Z,13.19
2022-10-30T07:53:26.177Z,13.18
2022-10-30T07:55:32.374Z,13.18
2022-10-30T07:57:54.398Z,13.18
2022-10-30T08:00:04.603Z,13.18
2022-10-30T08:02:20.414Z,13.18
2022-10-30T08:04:47.014Z,13.18
2022-10-30T08:07:11.009Z,13.17
2022-10-30T08:09:18.848Z,13.17
2022-10-30T08:11:26.465Z,13.16
2022-10-30T08:13:34.250Z,13.16
2022-10-30T08:15:40.659Z,13.15
2022-10-30T08:17:50.020Z,13.14
2022-10-30T08:19:58.239Z,13.14
2022-10-30T08:22:04.899Z,13.13
2022-10-30T08:24:13.357Z,13.12
2022-10-30T08:26:20.777Z,13.12
2022-10-30T08:28:29.961Z,13.13
2022-10-30T08:30:40.570Z,13.14
2022-10-30T08:32:49.506Z,13.15
2022-10-30T08:35:18.624Z,13.17
2022-10-30T08:37:26.109Z,13.17
2022-10-30T08:39:32.644Z,13.18
2022-10-30T08:41:47.511Z,13.18
2022-10-30T08:43:53.804Z,13.19
2022-10-30T08:46:02.492Z,13.20
2022-10-30T08:48:11.878Z,13.20
2022-10-30T08:52:31.800Z,13.20
2022-10-30T08:54:37.982Z,13.19
2022-10-30T08:56:45.502Z,13.18
2022-10-30T08:58:55.561Z,13.19
2022-10-30T09:01:02.677Z,13.18
2022-10-30T09:03:27.896Z,13.18
2022-10-30T09:05:34.581Z,13.17
2022-10-30T09:08:02.142Z,13.16
2022-10-30T09:10:41.721Z,13.15
2022-10-30T09:12:48.137Z,13.15
2022-10-30T09:14:55.075Z,13.14
2022-10-30T09:17:02.147Z,13.12
2022-10-30T09:19:12.485Z,13.13
2022-10-30T09:21:20.802Z,13.12
2022-10-30T09:23:29.422Z,13.11
2022-10-30T09:25:51.334Z,13.11
2022-10-30T09:28:20.422Z,13.10
2022-10-30T09:30:44.877Z,13.09
2022-10-30T09:33:03.436Z,13.09
2022-10-30T09:35:30.101Z,13.08
2022-10-30T09:37:38.420Z,13.08
2022-10-30T09:39:53.175Z,13.09
2022-10-30T09:42:37.745Z,13.09
2022-10-30T09:45:15.093Z,13.09
2022-10-30T09:47:25.714Z,13.09
2022-10-30T09:49:41.468Z,13.10
2022-10-30T09:52:04.105Z,13.10
2022-10-30T09:54:43.936Z,13.10
2022-10-30T09:57:08.112Z,13.09
2022-10-30T09:59:43.524Z,13.09
2022-10-30T10:02:18.605Z,13.08
2022-10-30T10:04:35.832Z,13.07
2022-10-30T10:06:57.329Z,13.07
2022-10-30T10:09:22.772Z,13.07
2022-10-30T10:12:09.955Z,13.07
2022-10-30T10:14:32.358Z,13.06
2022-10-30T10:16:43.625Z,13.05
2022-10-30T10:18:54.265Z,13.04
2022-10-30T10:21:09.011Z,13.03
2022-10-30T10:23:35.301Z,13.04
2022-10-30T10:25:44.508Z,13.03
2022-10-30T10:28:13.864Z,13.02
2022-10-30T10:30:22.867Z,13.01
2022-10-30T10:32:35.034Z,13.01
2022-10-30T10:34:44.191Z,13.00
2022-10-30T10:36:53.230Z,12.98
2022-10-30T10:39:04.844Z,12.96
2022-10-30T10:41:42.744Z,12.95
2022-10-30T10:43:49.369Z,12.95
2022-10-30T10:46:02.012Z,12.94
2022-10-30T10:48:43.076Z,12.92
2022-10-30T10:50:53.786Z,12.92
2022-10-30T10:53:36.106Z,12.91
2022-10-30T10:55:46.096Z,12.91
2022-10-30T10:57:54.479Z,12.90
2022-10-30T11:00:06.689Z,12.90
2022-10-30T11:02:44.525Z,12.89
2022-10-30T11:04:56.824Z,12.89
2022-10-30T11:07:20.817Z,12.89
2022-10-30T11:09:29.527Z,12.89
2022-10-30T11:11:35.833Z,12.89
2022-10-30T11:13:44.682Z,12.89
2022-10-30T11:16:31.887Z,12.88
2022-10-30T11:18:38.852Z,12.89
2022-10-30T11:21:04.416Z,12.88
2022-10-30T11:23:55.116Z,12.87
2022-10-30T11:26:02.861Z,12.85
2022-10-30T11:28:42.503Z,12.84
2022-10-30T11:30:48.899Z,12.83
2022-10-30T11:32:57.100Z,12.82
2022-10-30T11:35:09.540Z,12.81
2022-10-30T11:37:32.514Z,12.79
2022-10-30T11:39:38.678Z,12.79
2022-10-30T11:41:56.915Z,12.78
2022-10-30T11:44:03.457Z,12.77
2022-10-30T11:46:22.265Z,12.76
2022-10-30T11:48:34.862Z,12.75
2022-10-30T11:50:49.657Z,12.74
2022-10-30T11:53:11.184Z,12.73
2022-10-30T11:55:34.920Z,12.73
2022-10-30T11:57:46.574Z,12.72
2022-10-30T12:00:03.787Z,12.72
2022-10-30T12:02:31.234Z,12.72
2022-10-30T12:04:37.757Z,12.71
2022-10-30T12:06:44.242Z,12.70
2022-10-30T12:09:13.474Z,12.69
2022-10-30T12:11:20.095Z,12.68
2022-10-30T12:13:27.854Z,12.67
2022-10-30T12:15:39.032Z,12.65
2022-10-30T12:17:54.241Z,12.64
2022-10-30T12:20:00.938Z,12.63
2022-10-30T12:22:09.911Z,12.62
2022-10-30T12:24:24.754Z,12.61
2022-10-30T12:26:31.798Z,12.58
2022-10-30T12:28:39.626Z,12.58
2022-10-30T12:31:00.335Z,12.56
2022-10-30T12:33:18.676Z,12.54
2022-10-30T12:36:00.188Z,12.52
2022-10-30T12:38:15.357Z,12.50
2022-10-30T12:40:30.326Z,12.47
2022-10-30T12:42:41.697Z,12.45
2022-10-30T12:45:07.836Z,12.44
2022-10-30T12:47:59.398Z,12.42
2022-10-30T12:50:15.404Z,12.40
2022-10-30T12:52:38.645Z,12.38
2022-10-30T12:54:54.490Z,12.37
2022-10-30T12:57:35.366Z,12.37
2022-10-30T12:59:45.763Z,12.36
2022-10-30T13:02:01.052Z,12.36
2022-10-30T13:04:24.943Z,12.37
2022-10-30T13:06:38.402Z,12.38
2022-10-30T13:09:00.453Z,12.39
2022-10-30T13:11:21.555Z,12.39
2022-10-30T13:13:37.744Z,12.39
2022-10-30T13:15:57.095Z,12.37
2022-10-30T13:18:19.066Z,12.40
2022-10-30T13:20:27.786Z,12.39
2022-10-30T13:22:48.386Z,12.38
2022-10-30T13:25:18.088Z,12.38
2022-10-30T13:27:52.607Z,12.32
2022-10-30T13:30:02.609Z,12.26
2022-10-30T13:32:47.103Z,12.22
2022-10-30T13:35:09.803Z,12.18
2022-10-30T13:37:25.184Z,12.17
2022-10-30T13:39:44.954Z,12.15
2022-10-30T13:42:04.883Z,12.13
2022-10-30T13:44:22.504Z,12.11
2022-10-30T13:46:34.659Z,12.08
2022-10-30T13:48:50.474Z,12.04
2022-10-30T13:51:14.334Z,12.00
2022-10-30T13:53:28.265Z,11.95
2022-10-30T13:55:37.244Z,11.90
2022-10-30T13:57:53.108Z,11.87
2022-10-30T14:00:19.210Z,11.86
2022-10-30T14:02:33.147Z,11.85
2022-10-30T14:04:52.751Z,11.83
2022-10-30T14:07:32.309Z,11.80
2022-10-30T14:09:53.935Z,11.79
2022-10-30T14:12:23.099Z,11.79
2022-10-30T14:14:33.663Z,11.78
2022-10-30T14:16:48.353Z,11.77
2022-10-30T14:19:04.590Z,11.74
2022-10-30T14:21:38.140Z,11.73
2022-10-30T14:23:45.628Z,11.72
2022-10-30T14:26:04.389Z,11.72
2022-10-30T14:28:23.347Z,11.70
2022-10-30T14:30:30.341Z,11.68
2022-10-30T14:32:39.536Z,11.66
2022-10-30T14:34:53.478Z,11.63
2022-10-30T14:36:59.961Z,11.61
2022-10-30T14:39:12.114Z,11.57
2022-10-30T14:41:53.523Z,11.53
2022-10-30T14:44:13.729Z,11.50
2022-10-30T14:46:36.420Z,11.47
2022-10-30T14:49:01.406Z,11.43
2022-10-30T14:51:52.637Z,11.39
2022-10-30T14:54:40.254Z,11.37
2022-10-30T14:56:50.583Z,11.36
2022-10-30T14:59:17.547Z,11.35
2022-10-30T15:01:51.583Z,11.36
2022-10-30T15:04:07.948Z,11.35
2022-10-30T15:06:52.726Z,11.35
2022-10-30T15:09:10.189Z,11.34
2022-10-30T15:11:40.388Z,11.35
2022-10-30T15:14:20.946Z,11.36
2022-10-30T15:16:37.917Z,11.36
2022-10-30T15:18:56.914Z,11.35
2022-10-30T15:21:08.779Z,11.35
2022-10-30T15:23:31.146Z,11.34
2022-10-30T15:25:50.990Z,11.32
2022-10-30T15:27:58.722Z,11.31
2022-10-30T15:30:05.846Z,11.30
2022-10-30T15:32:21.369Z,11.31
2022-10-30T15:34:29.963Z,11.31
2022-10-30T15:36:54.487Z,11.32
2022-10-30T15:39:23.298Z,11.35
2022-10-30T15:41:30.583Z,11.37
2022-10-30T15:43:42.324Z,11.38
2022-10-30T15:45:50.925Z,11.38
2022-10-30T15:48:05.431Z,11.40
2022-10-30T15:50:13.292Z,11.46
2022-10-30T15:52:24.593Z,11.51
2022-10-30T15:54:33.266Z,11.55
2022-10-30T15:57:17.902Z,11.63
2022-10-30T15:59:20.806Z,11.79
2022-10-30T16:01:31.478Z,11.95
2022-10-30T16:03:37.602Z,12.13
2022-10-30T16:05:44.169Z,12.32
2022-10-30T16:07:50.692Z,12.49
2022-10-30T16:10:02.938Z,12.65
2022-10-30T16:12:12.922Z,12.81
2022-10-30T16:14:25.939Z,13.03
2022-10-30T16:16:33.316Z,13.27
2022-10-30T16:18:40.672Z,13.52
2022-10-30T16:20:59.978Z,13.83
2022-10-30T16:23:06.807Z,14.17
2022-10-30T16:25:14.053Z,14.45
2022-10-30T16:27:23.086Z,14.81
2022-10-30T16:29:30.174Z,15.12
2022-10-30T16:31:38.450Z,15.39
2022-10-30T16:33:48.097Z,15.65
2022-10-30T16:35:55.957Z,15.79
2022-10-30T16:38:04.618Z,15.89
2022-10-30T16:40:30.634Z,15.91
2022-10-30T16:42:36.915Z,15.80
2022-10-30T16:44:43.412Z,15.74
2022-10-30T16:46:53.695Z,15.70
2022-10-30T16:49:04.719Z,15.69
2022-10-30T16:51:17.574Z,15.64
2022-10-30T16:53:28.623Z,15.50
2022-10-30T16:55:37.076Z,15.38
2022-10-30T16:57:46.220Z,15.29
2022-10-30T16:59:54.004Z,15.21
2022-10-30T17:02:06.736Z,15.13
2022-10-30T17:04:17.841Z,15.05
2022-10-30T17:06:41.652Z,14.99
2022-10-30T17:08:48.230Z,14.91
2022-10-30T17:11:07.175Z,14.78
2022-10-30T17:13:59.844Z,14.71
2022-10-30T17:16:23.466Z,14.73
2022-10-30T17:18:34.532Z,14.75
2022-10-30T17:20:41.179Z,14.74
2022-10-30T17:22:50.755Z,14.68
2022-10-30T17:24:56.971Z,14.66
2022-10-30T17:27:08.813Z,14.71
2022-10-30T17:29:33.104Z,14.71
2022-10-30T17:31:39.260Z,14.60
2022-10-30T17:33:47.290Z,14.62
2022-10-30T17:38:05.375Z,14.67
2022-10-30T17:40:14.075Z,14.65
2022-10-30T17:42:20.541Z,14.57
2022-10-30T17:44:27.744Z,14.48
2022-10-30T17:46:34.422Z,14.37
2022-10-30T17:48:42.618Z,14.27
2022-10-30T17:50:48.884Z,14.20
2022-10-30T17:52:55.343Z,14.13
2022-10-30T17:55:03.352Z,14.08
2022-10-30T17:57:14.764Z,14.01
2022-10-30T17:59:21.253Z,13.94
2022-10-30T18:01:28.621Z,13.86
2022-10-30T18:03:35.133Z,13.80
2022-10-30T18:05:43.979Z,13.76
2022-10-30T18:10:01.425Z,13.73
2022-10-30T18:12:09.633Z,13.73
2022-10-30T18:14:15.588Z,13.69
2022-10-30T18:16:22.130Z,13.68
2022-10-30T18:18:28.674Z,13.67
2022-10-30T18:20:35.478Z,13.66
2022-10-30T18:22:41.744Z,13.66
2022-10-30T18:24:48.257Z,13.63
2022-10-30T18:26:55.901Z,13.64
2022-10-30T18:29:02.260Z,13.67
2022-10-30T18:31:12.039Z,13.67
2022-10-30T18:33:19.041Z,13.69
2022-10-30T18:35:37.324Z,13.69
2022-10-30T18:37:43.852Z,13.70
2022-10-30T18:39:50.022Z,13.69
2022-10-30T18:41:56.509Z,13.66
2022-10-30T18:44:03.259Z,13.62
2022-10-30T18:46:16.357Z,13.58
2022-10-30T18:48:23.099Z,13.51
2022-10-30T18:50:31.585Z,13.47
2022-10-30T18:52:37.807Z,13.48
2022-10-30T18:54:44.489Z,13.46
2022-10-30T18:56:50.592Z,13.46
2022-10-30T18:59:01.972Z,13.44
2022-10-30T19:01:12.610Z,13.42
2022-10-30T19:03:19.337Z,13.40
2022-10-30T19:05:34.172Z,13.40
2022-10-30T19:07:40.669Z,13.39
2022-10-30T19:09:47.116Z,13.39
2022-10-30T19:11:53.740Z,13.40
2022-10-30T19:14:00.369Z,13.42
2022-10-30T19:16:12.937Z,13.43
2022-10-30T19:18:20.439Z,13.44
2022-10-30T19:20:37.646Z,13.47
2022-10-30T19:22:50.777Z,13.50
2022-10-30T19:24:57.186Z,13.54
2022-10-30T19:27:03.747Z,13.58
2022-10-30T19:29:10.130Z,13.60
2022-10-30T19:31:18.668Z,13.61
2022-10-30T19:33:25.592Z,13.64
2022-10-30T19:35:32.146Z,13.67
2022-10-30T19:37:39.192Z,13.69
2022-10-30T19:39:45.494Z,13.71
2022-10-30T19:41:51.809Z,13.71
2022-10-30T19:43:58.267Z,13.71
2022-10-30T19:46:04.941Z,13.70
2022-10-30T19:48:24.701Z,13.69
2022-10-30T19:50:39.986Z,13.70
2022-10-30T19:52:46.009Z,13.69
2022-10-30T19:54:52.580Z,13.73
2022-10-30T19:56:59.050Z,13.76
2022-10-30T19:59:07.120Z,13.78
2022-10-30T20:01:15.487Z,13.79
2022-10-30T20:03:22.706Z,13.82
2022-10-30T20:05:32.274Z,13.84
2022-10-30T20:07:38.919Z,13.83
2022-10-30T20:09:45.268Z,13.85
2022-10-30T20:11:51.579Z,13.85
2022-10-30T20:13:58.181Z,13.85
2022-10-30T20:16:05.819Z,13.85
2022-10-30T20:18:20.469Z,13.85
2022-10-30T20:20:33.577Z,13.84
2022-10-30T20:22:40.565Z,13.83
2022-10-30T20:24:46.543Z,13.80
2022-10-30T20:26:54.341Z,13.78
2022-10-30T20:29:02.838Z,13.75
2022-10-30T20:31:12.031Z,13.74
2022-10-30T20:33:20.312Z,13.72
2022-10-30T20:35:26.872Z,13.72
2022-10-30T20:37:33.289Z,13.72
2022-10-30T20:39:39.819Z,13.72
2022-10-30T20:41:45.974Z,13.73
2022-10-30T20:43:52.995Z,13.74
2022-10-30T20:46:00.485Z,13.75
2022-10-30T20:48:06.905Z,13.75
2022-10-30T20:50:13.157Z,13.79
2022-10-30T20:52:19.424Z,13.82
2022-10-30T20:54:25.681Z,13.85
2022-10-30T20:56:31.716Z,13.87
2022-10-30T20:58:38.011Z,13.87
2022-10-30T21:00:44.363Z,13.87
2022-10-30T21:02:51.137Z,13.85
2022-10-30T21:05:03.173Z,13.86
2022-10-30T21:07:14.193Z,13.85
2022-10-30T21:09:20.476Z,13.83
2022-10-30T21:11:26.709Z,13.82
2022-10-30T21:13:34.799Z,13.82
2022-10-30T21:15:48.260Z,13.82
2022-10-30T21:17:54.586Z,13.81
2022-10-30T21:20:00.683Z,13.81
2022-10-30T21:22:07.116Z,13.82
2022-10-30T21:24:14.359Z,13.83
2022-10-30T21:26:20.683Z,13.83
2022-10-30T21:28:27.456Z,13.83
2022-10-30T21:30:33.792Z,13.83
2022-10-30T21:32:40.207Z,13.84
2022-10-30T21:34:46.688Z,13.83
2022-10-30T21:36:52.991Z,13.83
2022-10-30T21:39:00.436Z,13.83
2022-10-30T21:41:06.793Z,13.83
2022-10-30T21:43:12.875Z,13.84
2022-10-30T21:45:18.939Z,13.86
2022-10-30T21:47:25.061Z,13.87
2022-10-30T21:49:31.466Z,13.91
2022-10-30T21:51:37.923Z,13.93
2022-10-30T21:53:45.166Z,13.96
2022-10-30T21:55:51.612Z,13.98
2022-10-30T21:57:58.181Z,14.00
2022-10-30T22:00:06.174Z,14.02
2022-10-30T22:02:17.137Z,14.03
2022-10-30T22:04:23.954Z,14.02
2022-10-30T22:06:30.746Z,14.03
2022-10-30T22:08:37.737Z,14.02
2022-10-30T22:10:44.937Z,14.02
2022-10-30T22:12:51.286Z,14.02
2022-10-30T22:14:57.788Z,14.03
2022-10-30T22:17:04.189Z,14.03
2022-10-30T22:19:11.853Z,14.02
2022-10-30T22:21:18.756Z,14.02
2022-10-30T22:23:25.201Z,14.03
2022-10-30T22:25:32.196Z,14.05
2022-10-30T22:27:38.922Z,14.07
2022-10-30T22:29:45.489Z,14.09
2022-10-30T22:31:51.751Z,14.10
2022-10-30T22:33:59.861Z,14.12
2022-10-30T22:36:16.979Z,14.14
2022-10-30T22:38:23.473Z,14.15
2022-10-30T22:40:29.687Z,14.15
2022-10-30T22:42:37.082Z,14.18
2022-10-30T22:44:43.536Z,14.19
2022-10-30T22:46:49.769Z,14.21
2022-10-30T22:48:56.174Z,14.23
2022-10-30T22:51:05.195Z,14.24
2022-10-30T22:53:11.472Z,14.23
2022-10-30T22:55:18.039Z,14.21
2022-10-30T22:57:24.047Z,14.22
2022-10-30T22:59:30.034Z,14.22
2022-10-30T23:01:37.868Z,14.18
2022-10-30T23:03:45.185Z,14.15
2022-10-30T23:05:59.686Z,14.13
2022-10-30T23:08:06.530Z,14.11
2022-10-30T23:10:13.034Z,14.07
2022-10-30T23:12:19.270Z,14.07
2022-10-30T23:14:26.248Z,14.06
2022-10-30T23:16:32.793Z,14.06
2022-10-30T23:18:39.560Z,14.06
2022-10-30T23:20:47.854Z,14.05
2022-10-30T23:22:54.016Z,14.04
2022-10-30T23:25:00.347Z,14.02
2022-10-30T23:27:06.994Z,14.00
2022-10-30T23:29:13.459Z,14.00
2022-10-30T23:31:22.123Z,13.99
2022-10-30T23:33:28.467Z,13.98
2022-10-30T23:35:34.455Z,13.97
2022-10-30T23:37:40.956Z,13.96
2022-10-30T23:39:47.233Z,13.94
2022-10-30T23:41:53.752Z,13.93
2022-10-30T23:44:01.622Z,13.93
2022-10-30T23:46:08.157Z,13.91
2022-10-30T23:48:14.072Z,13.89
2022-10-30T23:50:20.465Z,13.89
2022-10-30T23:52:26.611Z,13.91
2022-10-30T23:54:33.107Z,13.92
2022-10-30T23:56:39.558Z,13.93
2022-10-30T23:58:47.595Z,13.93
